Archival Weather

Annapolis United States Naval

Annapolis United States Naval, Maryland (KNAK)

Report from: Tuesday, June 6, 2023 11:54 PM UTC
Current time: Tuesday, July 16, 2024 8:25 AM UTC

Current weather – Weather history – Daily summaries
Weather forecast

Present weatherHaze
Temperature25.0°C (77.0°F)
Dew point10.6°C (51.1°F)
Winds Calm
Visibility6 mi. (9.7 km)
Clouds Sky clear
Altimeter29.64 in.Hg (1004 mB)
Relative humidity40 %
Density altitude1,655 ft. (504 m)
Sea-level pressure100.4 kPa (1004 mB, 29.65 in.Hg)
Max temp last 6 hours26.7°C (80.1°F)
Min temp last 6 hours25.0°C (77.0°F)
Remarks Fully automated report
Automated weather observing station with precipitation discriminator
Pressure falling, then rising
Flight conditions Visual Meteorological Conditions
Raw dataKNAK 062354Z AUTO 00000KT 6SM HZ CLR 25/11 A2964 RMK AO2 SLP039 T02500106 10267 20250 55009
An error has occurred. This application may no longer respond until reloaded. Reload 🗙